sensor_id;sensor_type;location;lat;lon;timestamp;P1;durP1;ratioP1;P2;durP2;ratioP2
42430;SDS011;71905;47.466;19.024;2024-02-28T00:01:10;22.27;;;15.20;;
42430;SDS011;71905;47.466;19.024;2024-02-28T00:03:38;25.48;;;16.15;;
42430;SDS011;71905;47.466;19.024;2024-02-28T00:06:07;21.52;;;15.23;;
42430;SDS011;71905;47.466;19.024;2024-02-28T00:08:35;21.02;;;15.55;;
42430;SDS011;71905;47.466;19.024;2024-02-28T00:11:03;28.17;;;16.95;;
42430;SDS011;71905;47.466;19.024;2024-02-28T00:13:31;24.85;;;16.45;;
42430;SDS011;71905;47.466;19.024;2024-02-28T00:15:59;26.80;;;16.67;;
42430;SDS011;71905;47.466;19.024;2024-02-28T00:18:27;26.02;;;16.92;;
42430;SDS011;71905;47.466;19.024;2024-02-28T00:20:56;27.52;;;16.70;;
42430;SDS011;71905;47.466;19.024;2024-02-28T00:23:26;23.30;;;16.08;;
42430;SDS011;71905;47.466;19.024;2024-02-28T00:25:54;25.27;;;17.17;;
42430;SDS011;71905;47.466;19.024;2024-02-28T00:28:23;22.80;;;15.05;;
42430;SDS011;71905;47.466;19.024;2024-02-28T00:30:51;24.35;;;15.57;;
42430;SDS011;71905;47.466;19.024;2024-02-28T00:33:19;24.00;;;16.20;;
42430;SDS011;71905;47.466;19.024;2024-02-28T00:35:47;23.90;;;16.23;;
42430;SDS011;71905;47.466;19.024;2024-02-28T00:38:15;27.63;;;16.90;;
42430;SDS011;71905;47.466;19.024;2024-02-28T00:40:44;24.88;;;17.52;;
42430;SDS011;71905;47.466;19.024;2024-02-28T00:43:12;24.80;;;16.70;;
42430;SDS011;71905;47.466;19.024;2024-02-28T00:45:40;25.45;;;16.75;;
42430;SDS011;71905;47.466;19.024;2024-02-28T00:48:08;26.83;;;16.77;;
42430;SDS011;71905;47.466;19.024;2024-02-28T00:50:36;26.30;;;16.77;;
42430;SDS011;71905;47.466;19.024;2024-02-28T00:53:04;26.20;;;17.20;;
42430;SDS011;71905;47.466;19.024;2024-02-28T00:55:32;29.35;;;17.95;;
42430;SDS011;71905;47.466;19.024;2024-02-28T00:58:02;28.33;;;18.85;;
42430;SDS011;71905;47.466;19.024;2024-02-28T01:00:30;24.45;;;17.15;;
42430;SDS011;71905;47.466;19.024;2024-02-28T01:02:58;23.85;;;17.10;;
42430;SDS011;71905;47.466;19.024;2024-02-28T01:05:30;26.35;;;17.17;;
42430;SDS011;71905;47.466;19.024;2024-02-28T01:07:58;28.80;;;18.73;;
42430;SDS011;71905;47.466;19.024;2024-02-28T01:10:26;26.48;;;17.17;;
42430;SDS011;71905;47.466;19.024;2024-02-28T01:12:54;25.55;;;17.25;;
42430;SDS011;71905;47.466;19.024;2024-02-28T01:15:23;26.95;;;17.00;;
42430;SDS011;71905;47.466;19.024;2024-02-28T01:17:51;25.63;;;16.88;;
42430;SDS011;71905;47.466;19.024;2024-02-28T01:20:19;27.00;;;16.83;;
42430;SDS011;71905;47.466;19.024;2024-02-28T01:22:46;25.77;;;17.58;;
42430;SDS011;71905;47.466;19.024;2024-02-28T01:25:15;29.27;;;17.27;;
42430;SDS011;71905;47.466;19.024;2024-02-28T01:27:43;25.83;;;19.05;;
42430;SDS011;71905;47.466;19.024;2024-02-28T01:30:11;29.23;;;18.38;;
42430;SDS011;71905;47.466;19.024;2024-02-28T01:32:40;28.80;;;19.38;;
42430;SDS011;71905;47.466;19.024;2024-02-28T01:35:09;25.40;;;18.45;;
42430;SDS011;71905;47.466;19.024;2024-02-28T01:37:37;28.40;;;18.15;;
42430;SDS011;71905;47.466;19.024;2024-02-28T01:40:05;25.45;;;16.95;;
42430;SDS011;71905;47.466;19.024;2024-02-28T01:42:35;26.48;;;18.02;;
42430;SDS011;71905;47.466;19.024;2024-02-28T01:45:03;28.83;;;18.38;;
42430;SDS011;71905;47.466;19.024;2024-02-28T01:47:32;24.17;;;16.20;;
42430;SDS011;71905;47.466;19.024;2024-02-28T01:50:01;28.25;;;18.08;;
42430;SDS011;71905;47.466;19.024;2024-02-28T01:52:30;26.05;;;16.98;;
42430;SDS011;71905;47.466;19.024;2024-02-28T01:54:58;27.33;;;17.52;;
42430;SDS011;71905;47.466;19.024;2024-02-28T01:57:26;28.63;;;17.08;;
42430;SDS011;71905;47.466;19.024;2024-02-28T01:59:54;27.15;;;16.23;;
42430;SDS011;71905;47.466;19.024;2024-02-28T02:02:23;25.45;;;17.10;;
42430;SDS011;71905;47.466;19.024;2024-02-28T02:04:51;22.33;;;16.13;;
42430;SDS011;71905;47.466;19.024;2024-02-28T02:07:22;25.92;;;16.40;;
42430;SDS011;71905;47.466;19.024;2024-02-28T02:09:50;26.27;;;17.17;;
42430;SDS011;71905;47.466;19.024;2024-02-28T02:12:19;27.48;;;17.40;;
42430;SDS011;71905;47.466;19.024;2024-02-28T02:14:47;26.95;;;16.60;;
42430;SDS011;71905;47.466;19.024;2024-02-28T02:17:15;25.67;;;16.27;;
42430;SDS011;71905;47.466;19.024;2024-02-28T02:19:45;27.80;;;16.25;;
42430;SDS011;71905;47.466;19.024;2024-02-28T02:22:13;26.65;;;16.73;;
42430;SDS011;71905;47.466;19.024;2024-02-28T02:24:43;24.13;;;16.70;;
42430;SDS011;71905;47.466;19.024;2024-02-28T02:27:11;26.40;;;16.90;;
42430;SDS011;71905;47.466;19.024;2024-02-28T02:29:39;24.02;;;17.23;;
42430;SDS011;71905;47.466;19.024;2024-02-28T02:32:07;26.60;;;17.38;;
42430;SDS011;71905;47.466;19.024;2024-02-28T02:34:35;27.35;;;17.08;;
42430;SDS011;71905;47.466;19.024;2024-02-28T02:37:03;29.55;;;17.65;;
42430;SDS011;71905;47.466;19.024;2024-02-28T02:39:35;31.63;;;18.00;;
42430;SDS011;71905;47.466;19.024;2024-02-28T02:42:04;25.00;;;17.95;;
42430;SDS011;71905;47.466;19.024;2024-02-28T02:44:33;26.60;;;17.65;;
42430;SDS011;71905;47.466;19.024;2024-02-28T02:47:01;23.02;;;16.42;;
42430;SDS011;71905;47.466;19.024;2024-02-28T02:49:29;25.58;;;17.77;;
42430;SDS011;71905;47.466;19.024;2024-02-28T02:51:57;28.75;;;18.15;;
42430;SDS011;71905;47.466;19.024;2024-02-28T02:54:25;28.80;;;17.27;;
42430;SDS011;71905;47.466;19.024;2024-02-28T02:56:53;24.98;;;17.08;;
42430;SDS011;71905;47.466;19.024;2024-02-28T02:59:22;27.67;;;17.10;;
42430;SDS011;71905;47.466;19.024;2024-02-28T03:01:50;27.77;;;17.85;;
42430;SDS011;71905;47.466;19.024;2024-02-28T03:04:18;31.30;;;18.77;;
42430;SDS011;71905;47.466;19.024;2024-02-28T03:06:46;29.15;;;18.50;;
42430;SDS011;71905;47.466;19.024;2024-02-28T03:09:14;30.17;;;18.92;;
42430;SDS011;71905;47.466;19.024;2024-02-28T03:11:42;30.00;;;20.15;;
42430;SDS011;71905;47.466;19.024;2024-02-28T03:14:10;27.20;;;19.33;;
42430;SDS011;71905;47.466;19.024;2024-02-28T03:16:42;29.52;;;20.35;;
42430;SDS011;71905;47.466;19.024;2024-02-28T03:19:10;31.17;;;19.42;;
42430;SDS011;71905;47.466;19.024;2024-02-28T03:21:39;30.98;;;19.33;;
42430;SDS011;71905;47.466;19.024;2024-02-28T03:24:07;32.53;;;19.92;;
42430;SDS011;71905;47.466;19.024;2024-02-28T03:26:36;34.67;;;20.83;;
42430;SDS011;71905;47.466;19.024;2024-02-28T03:29:04;27.30;;;18.80;;
42430;SDS011;71905;47.466;19.024;2024-02-28T03:31:32;28.52;;;19.65;;
42430;SDS011;71905;47.466;19.024;2024-02-28T03:34:01;29.65;;;19.45;;
42430;SDS011;71905;47.466;19.024;2024-02-28T03:36:29;29.60;;;19.85;;
42430;SDS011;71905;47.466;19.024;2024-02-28T03:38:57;33.80;;;21.63;;
42430;SDS011;71905;47.466;19.024;2024-02-28T03:41:25;33.25;;;20.17;;
42430;SDS011;71905;47.466;19.024;2024-02-28T03:43:53;32.00;;;19.42;;
42430;SDS011;71905;47.466;19.024;2024-02-28T03:46:21;29.35;;;19.50;;
42430;SDS011;71905;47.466;19.024;2024-02-28T03:48:49;30.10;;;19.58;;
42430;SDS011;71905;47.466;19.024;2024-02-28T03:51:19;35.33;;;19.67;;
42430;SDS011;71905;47.466;19.024;2024-02-28T03:53:47;28.90;;;20.33;;
42430;SDS011;71905;47.466;19.024;2024-02-28T03:56:21;34.10;;;19.40;;
42430;SDS011;71905;47.466;19.024;2024-02-28T03:58:52;30.50;;;19.25;;
42430;SDS011;71905;47.466;19.024;2024-02-28T04:01:20;35.08;;;20.15;;
42430;SDS011;71905;47.466;19.024;2024-02-28T04:03:48;30.45;;;18.75;;
42430;SDS011;71905;47.466;19.024;2024-02-28T04:06:16;29.35;;;19.58;;
42430;SDS011;71905;47.466;19.024;2024-02-28T04:08:46;30.73;;;19.48;;
42430;SDS011;71905;47.466;19.024;2024-02-28T04:11:14;35.08;;;20.23;;
42430;SDS011;71905;47.466;19.024;2024-02-28T04:13:42;33.03;;;19.73;;
42430;SDS011;71905;47.466;19.024;2024-02-28T04:16:10;29.52;;;19.25;;
42430;SDS011;71905;47.466;19.024;2024-02-28T04:18:38;32.60;;;19.42;;
42430;SDS011;71905;47.466;19.024;2024-02-28T04:21:06;30.92;;;19.02;;
42430;SDS011;71905;47.466;19.024;2024-02-28T04:23:34;30.85;;;19.85;;
42430;SDS011;71905;47.466;19.024;2024-02-28T04:26:03;31.40;;;20.17;;
42430;SDS011;71905;47.466;19.024;2024-02-28T04:28:31;31.27;;;21.65;;
42430;SDS011;71905;47.466;19.024;2024-02-28T04:30:59;33.05;;;20.80;;
42430;SDS011;71905;47.466;19.024;2024-02-28T04:33:28;33.17;;;20.80;;
42430;SDS011;71905;47.466;19.024;2024-02-28T04:35:56;30.67;;;19.65;;
42430;SDS011;71905;47.466;19.024;2024-02-28T04:38:24;33.70;;;21.63;;
42430;SDS011;71905;47.466;19.024;2024-02-28T04:40:52;33.10;;;20.23;;
42430;SDS011;71905;47.466;19.024;2024-02-28T04:43:21;30.27;;;19.85;;
42430;SDS011;71905;47.466;19.024;2024-02-28T04:45:49;31.35;;;20.52;;
42430;SDS011;71905;47.466;19.024;2024-02-28T04:48:17;29.50;;;19.20;;
42430;SDS011;71905;47.466;19.024;2024-02-28T04:50:45;33.10;;;20.00;;
42430;SDS011;71905;47.466;19.024;2024-02-28T04:53:13;29.42;;;18.98;;
42430;SDS011;71905;47.466;19.024;2024-02-28T04:55:41;31.15;;;19.48;;
42430;SDS011;71905;47.466;19.024;2024-02-28T04:58:09;29.88;;;18.73;;
42430;SDS011;71905;47.466;19.024;2024-02-28T05:00:39;33.03;;;19.67;;
42430;SDS011;71905;47.466;19.024;2024-02-28T05:03:07;30.05;;;18.77;;
42430;SDS011;71905;47.466;19.024;2024-02-28T05:05:35;28.50;;;18.38;;
42430;SDS011;71905;47.466;19.024;2024-02-28T05:08:03;29.85;;;19.13;;
42430;SDS011;71905;47.466;19.024;2024-02-28T05:10:32;26.90;;;19.23;;
42430;SDS011;71905;47.466;19.024;2024-02-28T05:13:00;31.05;;;19.30;;
42430;SDS011;71905;47.466;19.024;2024-02-28T05:15:30;26.75;;;17.48;;
42430;SDS011;71905;47.466;19.024;2024-02-28T05:18:00;29.73;;;18.25;;
42430;SDS011;71905;47.466;19.024;2024-02-28T05:20:28;30.38;;;19.52;;
42430;SDS011;71905;47.466;19.024;2024-02-28T05:22:56;32.67;;;21.88;;
42430;SDS011;71905;47.466;19.024;2024-02-28T05:25:24;28.90;;;18.88;;
42430;SDS011;71905;47.466;19.024;2024-02-28T05:27:52;30.67;;;20.13;;
42430;SDS011;71905;47.466;19.024;2024-02-28T05:30:20;27.17;;;17.92;;
42430;SDS011;71905;47.466;19.024;2024-02-28T05:32:48;25.35;;;16.88;;
42430;SDS011;71905;47.466;19.024;2024-02-28T05:35:18;29.20;;;17.90;;
42430;SDS011;71905;47.466;19.024;2024-02-28T05:37:46;28.85;;;18.85;;
42430;SDS011;71905;47.466;19.024;2024-02-28T05:40:14;30.63;;;20.45;;
42430;SDS011;71905;47.466;19.024;2024-02-28T05:42:42;28.45;;;18.48;;
42430;SDS011;71905;47.466;19.024;2024-02-28T05:45:10;32.08;;;18.73;;
42430;SDS011;71905;47.466;19.024;2024-02-28T05:47:39;28.45;;;18.60;;
42430;SDS011;71905;47.466;19.024;2024-02-28T05:50:07;28.65;;;17.42;;
42430;SDS011;71905;47.466;19.024;2024-02-28T05:52:37;26.50;;;17.73;;
42430;SDS011;71905;47.466;19.024;2024-02-28T05:55:06;24.52;;;16.85;;
42430;SDS011;71905;47.466;19.024;2024-02-28T05:57:34;31.20;;;18.85;;
42430;SDS011;71905;47.466;19.024;2024-02-28T06:00:02;29.85;;;18.13;;
42430;SDS011;71905;47.466;19.024;2024-02-28T06:02:39;26.70;;;16.50;;
42430;SDS011;71905;47.466;19.024;2024-02-28T06:05:08;30.10;;;17.13;;
42430;SDS011;71905;47.466;19.024;2024-02-28T06:07:37;25.88;;;16.13;;
42430;SDS011;71905;47.466;19.024;2024-02-28T06:10:06;32.70;;;15.90;;
42430;SDS011;71905;47.466;19.024;2024-02-28T06:12:36;24.40;;;15.02;;
42430;SDS011;71905;47.466;19.024;2024-02-28T06:15:05;26.42;;;14.82;;
42430;SDS011;71905;47.466;19.024;2024-02-28T06:17:33;26.60;;;15.15;;
42430;SDS011;71905;47.466;19.024;2024-02-28T06:20:01;23.50;;;14.52;;
42430;SDS011;71905;47.466;19.024;2024-02-28T06:22:30;31.67;;;17.42;;
42430;SDS011;71905;47.466;19.024;2024-02-28T06:24:59;28.88;;;16.23;;
42430;SDS011;71905;47.466;19.024;2024-02-28T06:27:27;27.77;;;17.35;;
42430;SDS011;71905;47.466;19.024;2024-02-28T06:29:55;27.75;;;17.92;;
42430;SDS011;71905;47.466;19.024;2024-02-28T06:32:23;26.52;;;17.00;;
42430;SDS011;71905;47.466;19.024;2024-02-28T06:34:51;28.13;;;17.55;;
42430;SDS011;71905;47.466;19.024;2024-02-28T06:37:20;27.38;;;16.63;;
42430;SDS011;71905;47.466;19.024;2024-02-28T06:39:48;28.42;;;16.20;;
42430;SDS011;71905;47.466;19.024;2024-02-28T06:42:17;25.45;;;15.80;;
42430;SDS011;71905;47.466;19.024;2024-02-28T06:44:45;25.90;;;16.23;;
42430;SDS011;71905;47.466;19.024;2024-02-28T06:47:13;32.67;;;15.25;;
42430;SDS011;71905;47.466;19.024;2024-02-28T06:49:41;29.27;;;16.73;;
42430;SDS011;71905;47.466;19.024;2024-02-28T06:52:09;27.70;;;16.67;;
42430;SDS011;71905;47.466;19.024;2024-02-28T06:54:37;29.88;;;18.05;;
42430;SDS011;71905;47.466;19.024;2024-02-28T06:57:05;31.73;;;18.63;;
42430;SDS011;71905;47.466;19.024;2024-02-28T06:59:34;28.95;;;17.00;;
42430;SDS011;71905;47.466;19.024;2024-02-28T07:02:02;31.13;;;17.70;;
42430;SDS011;71905;47.466;19.024;2024-02-28T07:04:31;30.17;;;17.20;;
42430;SDS011;71905;47.466;19.024;2024-02-28T07:06:58;26.30;;;17.13;;
42430;SDS011;71905;47.466;19.024;2024-02-28T07:09:26;26.65;;;17.58;;
42430;SDS011;71905;47.466;19.024;2024-02-28T07:11:57;28.83;;;17.30;;
42430;SDS011;71905;47.466;19.024;2024-02-28T07:14:25;28.77;;;16.75;;
42430;SDS011;71905;47.466;19.024;2024-02-28T07:16:54;30.60;;;17.85;;
42430;SDS011;71905;47.466;19.024;2024-02-28T07:19:22;25.08;;;16.08;;
42430;SDS011;71905;47.466;19.024;2024-02-28T07:21:51;36.25;;;18.13;;
42430;SDS011;71905;47.466;19.024;2024-02-28T07:24:19;33.22;;;18.25;;
42430;SDS011;71905;47.466;19.024;2024-02-28T07:26:47;28.85;;;17.67;;
42430;SDS011;71905;47.466;19.024;2024-02-28T07:29:16;29.08;;;17.52;;
42430;SDS011;71905;47.466;19.024;2024-02-28T07:31:44;31.95;;;18.50;;
42430;SDS011;71905;47.466;19.024;2024-02-28T07:34:14;28.67;;;18.02;;
42430;SDS011;71905;47.466;19.024;2024-02-28T07:36:42;28.75;;;17.17;;
42430;SDS011;71905;47.466;19.024;2024-02-28T07:39:10;33.38;;;17.95;;
42430;SDS011;71905;47.466;19.024;2024-02-28T07:41:39;29.05;;;17.92;;
42430;SDS011;71905;47.466;19.024;2024-02-28T07:44:08;30.05;;;17.15;;
42430;SDS011;71905;47.466;19.024;2024-02-28T07:46:37;29.70;;;18.40;;
42430;SDS011;71905;47.466;19.024;2024-02-28T07:49:05;29.48;;;18.25;;
42430;SDS011;71905;47.466;19.024;2024-02-28T07:51:34;31.85;;;18.40;;
42430;SDS011;71905;47.466;19.024;2024-02-28T07:54:02;29.70;;;17.90;;
42430;SDS011;71905;47.466;19.024;2024-02-28T07:56:30;30.02;;;17.70;;
42430;SDS011;71905;47.466;19.024;2024-02-28T07:58:58;35.92;;;18.15;;
42430;SDS011;71905;47.466;19.024;2024-02-28T08:01:26;33.47;;;18.60;;
42430;SDS011;71905;47.466;19.024;2024-02-28T08:03:54;27.95;;;16.83;;
42430;SDS011;71905;47.466;19.024;2024-02-28T08:06:23;28.90;;;17.27;;
42430;SDS011;71905;47.466;19.024;2024-02-28T08:08:53;30.08;;;17.63;;
42430;SDS011;71905;47.466;19.024;2024-02-28T08:11:21;27.08;;;18.42;;
42430;SDS011;71905;47.466;19.024;2024-02-28T08:13:50;29.40;;;17.13;;
42430;SDS011;71905;47.466;19.024;2024-02-28T08:16:18;28.95;;;16.77;;
42430;SDS011;71905;47.466;19.024;2024-02-28T08:18:46;30.17;;;17.83;;
42430;SDS011;71905;47.466;19.024;2024-02-28T08:21:14;25.73;;;16.65;;
42430;SDS011;71905;47.466;19.024;2024-02-28T08:23:42;31.00;;;17.05;;
42430;SDS011;71905;47.466;19.024;2024-02-28T08:26:11;27.85;;;17.05;;
42430;SDS011;71905;47.466;19.024;2024-02-28T08:28:39;26.00;;;16.70;;
42430;SDS011;71905;47.466;19.024;2024-02-28T08:31:09;32.70;;;16.80;;
42430;SDS011;71905;47.466;19.024;2024-02-28T08:33:37;30.83;;;17.10;;
42430;SDS011;71905;47.466;19.024;2024-02-28T08:36:06;29.15;;;15.93;;
42430;SDS011;71905;47.466;19.024;2024-02-28T08:38:34;31.95;;;16.73;;
42430;SDS011;71905;47.466;19.024;2024-02-28T08:41:05;27.73;;;16.58;;
42430;SDS011;71905;47.466;19.024;2024-02-28T08:43:38;29.27;;;16.77;;
42430;SDS011;71905;47.466;19.024;2024-02-28T08:46:06;28.55;;;16.88;;
42430;SDS011;71905;47.466;19.024;2024-02-28T08:48:35;28.65;;;16.17;;
42430;SDS011;71905;47.466;19.024;2024-02-28T08:51:04;29.90;;;17.10;;
42430;SDS011;71905;47.466;19.024;2024-02-28T08:53:32;27.88;;;16.30;;
42430;SDS011;71905;47.466;19.024;2024-02-28T08:56:00;33.20;;;15.50;;
42430;SDS011;71905;47.466;19.024;2024-02-28T08:58:28;26.80;;;16.17;;
42430;SDS011;71905;47.466;19.024;2024-02-28T09:00:57;26.67;;;15.55;;
42430;SDS011;71905;47.466;19.024;2024-02-28T09:03:25;29.88;;;16.95;;
42430;SDS011;71905;47.466;19.024;2024-02-28T09:05:53;28.95;;;15.85;;
42430;SDS011;71905;47.466;19.024;2024-02-28T09:08:21;28.17;;;15.95;;
42430;SDS011;71905;47.466;19.024;2024-02-28T09:10:49;28.70;;;16.00;;
42430;SDS011;71905;47.466;19.024;2024-02-28T09:13:17;33.92;;;16.70;;
42430;SDS011;71905;47.466;19.024;2024-02-28T09:15:46;25.80;;;16.17;;
42430;SDS011;71905;47.466;19.024;2024-02-28T09:18:19;26.80;;;16.35;;
42430;SDS011;71905;47.466;19.024;2024-02-28T09:20:47;30.52;;;18.65;;
42430;SDS011;71905;47.466;19.024;2024-02-28T09:23:15;28.60;;;17.17;;
42430;SDS011;71905;47.466;19.024;2024-02-28T09:25:43;32.58;;;17.38;;
42430;SDS011;71905;47.466;19.024;2024-02-28T09:28:11;25.95;;;16.83;;
42430;SDS011;71905;47.466;19.024;2024-02-28T09:30:41;31.13;;;17.27;;
42430;SDS011;71905;47.466;19.024;2024-02-28T09:33:19;32.13;;;16.95;;
42430;SDS011;71905;47.466;19.024;2024-02-28T09:35:47;30.88;;;17.30;;
42430;SDS011;71905;47.466;19.024;2024-02-28T09:38:15;32.55;;;16.98;;
42430;SDS011;71905;47.466;19.024;2024-02-28T09:40:45;33.08;;;16.83;;
42430;SDS011;71905;47.466;19.024;2024-02-28T09:43:15;31.10;;;15.63;;
42430;SDS011;71905;47.466;19.024;2024-02-28T09:45:50;24.33;;;15.02;;
42430;SDS011;71905;47.466;19.024;2024-02-28T09:48:20;23.75;;;15.30;;
42430;SDS011;71905;47.466;19.024;2024-02-28T09:50:49;30.60;;;16.95;;
42430;SDS011;71905;47.466;19.024;2024-02-28T09:53:17;25.95;;;15.43;;
42430;SDS011;71905;47.466;19.024;2024-02-28T09:55:45;30.65;;;15.65;;
42430;SDS011;71905;47.466;19.024;2024-02-28T09:58:13;26.45;;;15.27;;
42430;SDS011;71905;47.466;19.024;2024-02-28T10:00:42;29.52;;;16.27;;
42430;SDS011;71905;47.466;19.024;2024-02-28T10:03:12;29.95;;;15.98;;
42430;SDS011;71905;47.466;19.024;2024-02-28T10:05:43;34.20;;;16.48;;
42430;SDS011;71905;47.466;19.024;2024-02-28T10:08:11;22.25;;;15.50;;
42430;SDS011;71905;47.466;19.024;2024-02-28T10:10:44;28.55;;;15.48;;
42430;SDS011;71905;47.466;19.024;2024-02-28T10:13:15;27.25;;;14.88;;
42430;SDS011;71905;47.466;19.024;2024-02-28T10:15:44;35.78;;;16.85;;
42430;SDS011;71905;47.466;19.024;2024-02-28T10:18:12;26.00;;;14.90;;
42430;SDS011;71905;47.466;19.024;2024-02-28T10:20:40;26.52;;;14.57;;
42430;SDS011;71905;47.466;19.024;2024-02-28T10:23:10;29.08;;;15.25;;
42430;SDS011;71905;47.466;19.024;2024-02-28T10:25:41;31.95;;;16.55;;
42430;SDS011;71905;47.466;19.024;2024-02-28T10:28:22;25.27;;;15.30;;
42430;SDS011;71905;47.466;19.024;2024-02-28T10:30:51;26.55;;;15.10;;
42430;SDS011;71905;47.466;19.024;2024-02-28T10:33:20;26.83;;;14.93;;
42430;SDS011;71905;47.466;19.024;2024-02-28T10:35:50;25.73;;;15.43;;
42430;SDS011;71905;47.466;19.024;2024-02-28T10:38:19;27.67;;;15.45;;
42430;SDS011;71905;47.466;19.024;2024-02-28T10:40:48;27.38;;;14.63;;
42430;SDS011;71905;47.466;19.024;2024-02-28T10:43:18;26.58;;;15.52;;
42430;SDS011;71905;47.466;19.024;2024-02-28T10:45:47;23.60;;;13.57;;
42430;SDS011;71905;47.466;19.024;2024-02-28T10:48:37;26.38;;;13.55;;
42430;SDS011;71905;47.466;19.024;2024-02-28T10:51:06;25.92;;;13.20;;
42430;SDS011;71905;47.466;19.024;2024-02-28T10:53:37;25.35;;;13.30;;
42430;SDS011;71905;47.466;19.024;2024-02-28T10:56:10;24.45;;;13.82;;
42430;SDS011;71905;47.466;19.024;2024-02-28T10:58:47;24.30;;;13.25;;
42430;SDS011;71905;47.466;19.024;2024-02-28T11:01:19;24.35;;;13.45;;
42430;SDS011;71905;47.466;19.024;2024-02-28T11:03:48;29.25;;;14.70;;
42430;SDS011;71905;47.466;19.024;2024-02-28T11:06:21;24.35;;;13.93;;
42430;SDS011;71905;47.466;19.024;2024-02-28T11:08:49;25.13;;;14.18;;
42430;SDS011;71905;47.466;19.024;2024-02-28T11:11:21;25.65;;;13.65;;
42430;SDS011;71905;47.466;19.024;2024-02-28T11:13:53;22.92;;;14.57;;
42430;SDS011;71905;47.466;19.024;2024-02-28T11:16:28;27.70;;;17.15;;
42430;SDS011;71905;47.466;19.024;2024-02-28T11:18:57;25.92;;;14.65;;
42430;SDS011;71905;47.466;19.024;2024-02-28T11:21:28;25.60;;;15.27;;
42430;SDS011;71905;47.466;19.024;2024-02-28T11:23:57;28.50;;;14.52;;
42430;SDS011;71905;47.466;19.024;2024-02-28T11:26:26;26.55;;;15.20;;
42430;SDS011;71905;47.466;19.024;2024-02-28T11:28:55;27.52;;;14.70;;
42430;SDS011;71905;47.466;19.024;2024-02-28T11:31:23;22.92;;;13.43;;
42430;SDS011;71905;47.466;19.024;2024-02-28T11:33:53;23.80;;;13.40;;
42430;SDS011;71905;47.466;19.024;2024-02-28T11:36:21;22.52;;;14.00;;
42430;SDS011;71905;47.466;19.024;2024-02-28T11:38:51;25.17;;;14.38;;
42430;SDS011;71905;47.466;19.024;2024-02-28T11:41:26;25.43;;;13.97;;
42430;SDS011;71905;47.466;19.024;2024-02-28T11:43:54;23.63;;;13.45;;
42430;SDS011;71905;47.466;19.024;2024-02-28T11:46:22;27.45;;;14.23;;
42430;SDS011;71905;47.466;19.024;2024-02-28T11:48:52;26.73;;;13.65;;
42430;SDS011;71905;47.466;19.024;2024-02-28T11:51:21;22.75;;;12.75;;
42430;SDS011;71905;47.466;19.024;2024-02-28T11:53:49;21.00;;;13.50;;
42430;SDS011;71905;47.466;19.024;2024-02-28T11:56:19;26.08;;;13.40;;
42430;SDS011;71905;47.466;19.024;2024-02-28T11:58:51;25.05;;;13.77;;
42430;SDS011;71905;47.466;19.024;2024-02-28T12:01:19;28.40;;;13.95;;
42430;SDS011;71905;47.466;19.024;2024-02-28T12:03:47;25.70;;;14.15;;
42430;SDS011;71905;47.466;19.024;2024-02-28T12:06:15;26.17;;;14.98;;
42430;SDS011;71905;47.466;19.024;2024-02-28T12:08:43;24.95;;;13.77;;
42430;SDS011;71905;47.466;19.024;2024-02-28T12:11:14;25.42;;;15.05;;
42430;SDS011;71905;47.466;19.024;2024-02-28T12:13:42;28.55;;;15.15;;
42430;SDS011;71905;47.466;19.024;2024-02-28T12:16:13;27.33;;;13.73;;
42430;SDS011;71905;47.466;19.024;2024-02-28T12:18:41;30.20;;;13.68;;
42430;SDS011;71905;47.466;19.024;2024-02-28T12:21:09;23.13;;;13.60;;
42430;SDS011;71905;47.466;19.024;2024-02-28T12:23:37;26.77;;;13.40;;
42430;SDS011;71905;47.466;19.024;2024-02-28T12:26:05;24.35;;;13.85;;
42430;SDS011;71905;47.466;19.024;2024-02-28T12:28:34;25.75;;;14.20;;
42430;SDS011;71905;47.466;19.024;2024-02-28T12:31:02;24.50;;;13.65;;
42430;SDS011;71905;47.466;19.024;2024-02-28T12:33:35;27.75;;;13.82;;
42430;SDS011;71905;47.466;19.024;2024-02-28T12:36:03;27.50;;;15.13;;
42430;SDS011;71905;47.466;19.024;2024-02-28T12:38:31;28.80;;;14.40;;
42430;SDS011;71905;47.466;19.024;2024-02-28T12:40:59;24.92;;;14.02;;
42430;SDS011;71905;47.466;19.024;2024-02-28T12:43:29;27.38;;;13.93;;
42430;SDS011;71905;47.466;19.024;2024-02-28T12:45:59;22.90;;;14.07;;
42430;SDS011;71905;47.466;19.024;2024-02-28T12:48:28;24.60;;;13.70;;
42430;SDS011;71905;47.466;19.024;2024-02-28T12:50:57;26.38;;;13.20;;
42430;SDS011;71905;47.466;19.024;2024-02-28T12:53:26;22.90;;;13.13;;
42430;SDS011;71905;47.466;19.024;2024-02-28T12:55:53;21.98;;;12.63;;
42430;SDS011;71905;47.466;19.024;2024-02-28T12:58:22;25.30;;;13.35;;
42430;SDS011;71905;47.466;19.024;2024-02-28T13:00:50;28.35;;;13.77;;
42430;SDS011;71905;47.466;19.024;2024-02-28T13:03:20;25.15;;;13.73;;
42430;SDS011;71905;47.466;19.024;2024-02-28T13:05:48;22.52;;;12.98;;
42430;SDS011;71905;47.466;19.024;2024-02-28T13:08:16;28.85;;;13.82;;
42430;SDS011;71905;47.466;19.024;2024-02-28T13:10:44;22.92;;;13.32;;
42430;SDS011;71905;47.466;19.024;2024-02-28T13:13:12;25.25;;;12.48;;
42430;SDS011;71905;47.466;19.024;2024-02-28T13:15:40;23.25;;;12.98;;
42430;SDS011;71905;47.466;19.024;2024-02-28T13:18:08;27.23;;;13.15;;
42430;SDS011;71905;47.466;19.024;2024-02-28T13:20:38;29.83;;;14.00;;
42430;SDS011;71905;47.466;19.024;2024-02-28T13:23:07;25.38;;;12.95;;
42430;SDS011;71905;47.466;19.024;2024-02-28T13:25:35;30.77;;;17.98;;
42430;SDS011;71905;47.466;19.024;2024-02-28T13:28:04;22.83;;;13.38;;
42430;SDS011;71905;47.466;19.024;2024-02-28T13:30:32;24.25;;;13.77;;
42430;SDS011;71905;47.466;19.024;2024-02-28T13:33:03;26.85;;;12.25;;
42430;SDS011;71905;47.466;19.024;2024-02-28T13:35:31;21.85;;;12.13;;
42430;SDS011;71905;47.466;19.024;2024-02-28T13:38:01;24.13;;;12.15;;
42430;SDS011;71905;47.466;19.024;2024-02-28T13:40:29;23.65;;;12.18;;
42430;SDS011;71905;47.466;19.024;2024-02-28T13:42:57;24.05;;;11.05;;
42430;SDS011;71905;47.466;19.024;2024-02-28T13:45:25;21.90;;;10.93;;
42430;SDS011;71905;47.466;19.024;2024-02-28T13:47:53;20.27;;;10.20;;
42430;SDS011;71905;47.466;19.024;2024-02-28T13:50:21;21.02;;;10.85;;
42430;SDS011;71905;47.466;19.024;2024-02-28T13:52:50;21.60;;;11.02;;
42430;SDS011;71905;47.466;19.024;2024-02-28T13:55:20;19.98;;;10.23;;
42430;SDS011;71905;47.466;19.024;2024-02-28T13:57:48;42.88;;;29.77;;
42430;SDS011;71905;47.466;19.024;2024-02-28T14:00:16;26.00;;;12.05;;
42430;SDS011;71905;47.466;19.024;2024-02-28T14:02:45;22.58;;;10.82;;
42430;SDS011;71905;47.466;19.024;2024-02-28T14:05:13;21.95;;;10.35;;
42430;SDS011;71905;47.466;19.024;2024-02-28T14:07:41;17.75;;;9.73;;
42430;SDS011;71905;47.466;19.024;2024-02-28T14:10:09;17.05;;;9.10;;
42430;SDS011;71905;47.466;19.024;2024-02-28T14:12:39;22.95;;;10.07;;
42430;SDS011;71905;47.466;19.024;2024-02-28T14:15:07;20.42;;;9.85;;
42430;SDS011;71905;47.466;19.024;2024-02-28T14:17:37;18.52;;;9.55;;